createdAt,value
2022-09-14T09:46:08.358Z,2.67
2022-09-14T09:48:38.308Z,2.65
2022-09-14T09:51:11.699Z,2.67
2022-09-14T09:53:53.228Z,3.00
2022-09-14T09:56:26.673Z,2.35
2022-09-14T09:58:54.291Z,2.17
2022-09-14T10:01:33.793Z,2.78
2022-09-14T10:04:29.120Z,2.53
2022-09-14T10:06:58.050Z,2.85
2022-09-14T10:09:27.978Z,2.95
2022-09-14T10:12:04.580Z,2.65
2022-09-14T10:14:34.254Z,3.38
2022-09-14T10:17:09.058Z,3.13
2022-09-14T10:19:37.417Z,3.58
2022-09-14T10:22:29.009Z,3.03
2022-09-14T10:25:02.852Z,2.63
2022-09-14T10:27:39.932Z,3.05
2022-09-14T10:30:14.585Z,2.58
2022-09-14T10:32:50.466Z,2.72
2022-09-14T10:35:18.930Z,2.85
2022-09-14T10:38:26.159Z,2.30
2022-09-14T10:41:12.506Z,2.75
2022-09-14T10:43:49.189Z,2.30
2022-09-14T10:46:24.967Z,2.80
2022-09-14T10:49:20.384Z,2.95
2022-09-14T10:51:57.143Z,2.72
2022-09-14T10:54:45.850Z,2.95
2022-09-14T10:57:13.388Z,2.97
2022-09-14T10:59:56.859Z,2.53
2022-09-14T11:02:43.033Z,3.15
2022-09-14T11:05:21.762Z,2.65
2022-09-14T11:07:58.214Z,2.40
2022-09-14T11:10:33.833Z,2.28
2022-09-14T11:13:24.222Z,2.67
2022-09-14T11:16:12.695Z,2.25
2022-09-14T11:18:52.496Z,2.67
2022-09-14T11:21:50.052Z,2.22
2022-09-14T11:24:30.391Z,2.22
2022-09-14T11:27:18.955Z,2.35
2022-09-14T11:29:58.361Z,2.08
2022-09-14T11:32:34.029Z,2.70
2022-09-14T11:35:12.413Z,2.35
2022-09-14T11:37:42.361Z,2.25
2022-09-14T11:40:18.764Z,2.00
2022-09-14T11:42:53.780Z,2.50
2022-09-14T11:45:32.163Z,2.05
2022-09-14T11:48:41.311Z,2.13
2022-09-14T11:51:27.871Z,2.07
2022-09-14T11:53:55.313Z,2.08
2022-09-14T11:56:31.628Z,1.98
2022-09-14T11:59:03.608Z,2.45
2022-09-14T12:01:39.474Z,2.10
2022-09-14T12:04:13.069Z,1.88
2022-09-14T12:06:40.358Z,2.05
2022-09-14T12:09:21.743Z,2.17
2022-09-14T12:11:49.878Z,1.55
2022-09-14T12:14:32.657Z,1.90
2022-09-14T12:17:39.317Z,1.90
2022-09-14T12:20:43.051Z,1.73
2022-09-14T12:23:39.645Z,1.58
2022-09-14T12:26:06.970Z,1.15
2022-09-14T12:28:40.109Z,1.50
2022-09-14T12:31:14.272Z,1.75
2022-09-14T12:34:04.982Z,1.48
2022-09-14T12:36:38.347Z,1.38
2022-09-14T12:39:21.671Z,1.67
2022-09-14T12:41:48.954Z,1.50
2022-09-14T12:44:39.973Z,1.38
2022-09-14T12:47:26.224Z,1.52
2022-09-14T12:49:58.894Z,1.40
2022-09-14T12:52:57.423Z,1.40
2022-09-14T12:55:32.890Z,1.70
2022-09-14T12:58:25.225Z,1.25
2022-09-14T13:01:01.419Z,1.10
2022-09-14T13:03:53.655Z,1.25
2022-09-14T13:06:23.073Z,1.33
2022-09-14T13:08:57.223Z,1.30
2022-09-14T13:11:33.374Z,1.30
2022-09-14T13:14:02.380Z,1.10
2022-09-14T13:16:45.348Z,1.40
2022-09-14T13:19:34.911Z,1.20
2022-09-14T13:22:03.267Z,0.98
2022-09-14T13:24:45.598Z,1.30
2022-09-14T13:29:57.015Z,1.23
2022-09-14T13:32:24.365Z,1.70
2022-09-14T13:34:52.928Z,1.20
2022-09-14T13:37:21.517Z,1.50
2022-09-14T13:39:55.109Z,1.20
2022-09-14T13:42:23.848Z,1.40
2022-09-14T13:44:53.335Z,1.23
2022-09-14T13:47:23.102Z,1.48
2022-09-14T13:49:52.495Z,1.50
2022-09-14T13:52:22.679Z,1.65
2022-09-14T13:54:52.799Z,1.42
2022-09-14T13:57:22.761Z,1.40
2022-09-14T14:00:18.681Z,1.50
2022-09-14T14:03:05.401Z,1.20
2022-09-14T14:05:40.318Z,2.03
2022-09-14T14:08:26.984Z,2.00
2022-09-14T14:10:55.366Z,3.15
2022-09-14T14:13:31.949Z,2.10
2022-09-14T14:16:21.353Z,1.80
2022-09-14T14:18:57.283Z,1.27
2022-09-14T14:21:30.407Z,1.20
2022-09-14T14:24:17.944Z,1.10
2022-09-14T14:26:51.196Z,1.05
2022-09-14T14:29:19.361Z,1.30
2022-09-14T14:31:47.503Z,1.30
2022-09-14T14:34:26.437Z,1.15
2022-09-14T14:36:54.080Z,1.00
2022-09-14T14:39:23.246Z,1.50
2022-09-14T14:41:51.782Z,1.50
2022-09-14T14:44:23.855Z,1.52
2022-09-14T14:46:51.852Z,1.40
2022-09-14T14:49:20.860Z,2.30
2022-09-14T14:51:48.469Z,1.27
2022-09-14T14:54:18.649Z,1.85
2022-09-14T14:56:51.502Z,1.02
2022-09-14T14:59:21.779Z,1.40
2022-09-14T15:01:50.322Z,1.63
2022-09-14T15:04:17.683Z,1.30
2022-09-14T15:06:47.309Z,1.48
2022-09-14T15:09:20.547Z,1.38
2022-09-14T15:11:47.957Z,1.20
2022-09-14T15:14:17.749Z,1.83
2022-09-14T15:16:45.667Z,1.38
2022-09-14T15:19:13.310Z,1.30
2022-09-14T15:21:41.913Z,1.30
2022-09-14T15:24:10.549Z,1.30
2022-09-14T15:26:39.012Z,1.40
2022-09-14T15:29:06.526Z,1.10
2022-09-14T15:31:33.956Z,1.60
2022-09-14T15:34:01.263Z,1.27
2022-09-14T15:36:38.628Z,1.50
2022-09-14T15:39:07.691Z,1.48
2022-09-14T15:41:35.010Z,1.50
2022-09-14T15:44:03.867Z,1.23
2022-09-14T15:46:31.650Z,1.27
2022-09-14T15:48:59.426Z,1.42
2022-09-14T15:51:26.787Z,1.42
2022-09-14T15:53:54.390Z,1.40
2022-09-14T15:56:21.777Z,1.40
2022-09-14T15:58:49.075Z,1.40
2022-09-14T16:01:18.238Z,1.23
2022-09-14T16:03:46.149Z,1.38
2022-09-14T16:06:15.474Z,1.65
2022-09-14T16:08:42.838Z,1.25
2022-09-14T16:11:10.293Z,1.45
2022-09-14T16:13:37.694Z,1.40
2022-09-14T16:16:10.965Z,1.52
2022-09-14T16:18:38.810Z,2.17
2022-09-14T16:21:06.771Z,1.17
2022-09-14T16:23:38.074Z,1.60
2022-09-14T16:26:14.005Z,1.58
2022-09-14T16:28:42.810Z,1.55
2022-09-14T16:31:16.012Z,1.75
2022-09-14T16:33:46.009Z,1.80
2022-09-14T16:36:16.469Z,1.70
2022-09-14T16:38:44.457Z,1.85
2022-09-14T16:41:13.925Z,1.98
2022-09-14T16:43:41.277Z,1.77
2022-09-14T16:46:17.142Z,1.65
2022-09-14T16:48:46.914Z,1.60
2022-09-14T16:51:15.590Z,1.52
2022-09-14T16:53:47.875Z,1.80
2022-09-14T16:56:20.724Z,1.85
2022-09-14T16:58:49.729Z,1.95
2022-09-14T17:01:19.480Z,1.85
2022-09-14T17:03:49.124Z,1.70
2022-09-14T17:06:19.808Z,3.30
2022-09-14T17:08:48.691Z,1.95
2022-09-14T17:11:17.079Z,1.35
2022-09-14T17:13:46.850Z,2.20
2022-09-14T17:16:17.085Z,2.05
2022-09-14T17:18:45.584Z,1.83
2022-09-14T17:21:15.549Z,2.40
2022-09-14T17:23:43.085Z,2.10
2022-09-14T17:26:12.025Z,3.13
2022-09-14T17:28:39.746Z,3.60
2022-09-14T17:31:08.983Z,3.08
2022-09-14T17:33:36.578Z,2.38
2022-09-14T17:36:07.933Z,2.38
2022-09-14T17:38:37.730Z,2.80
2022-09-14T17:41:14.271Z,2.90
2022-09-14T17:43:42.838Z,2.97
2022-09-14T17:46:15.234Z,3.00
2022-09-14T17:48:43.334Z,3.00
2022-09-14T17:51:14.526Z,3.20
2022-09-14T17:53:44.035Z,3.17
2022-09-14T17:56:13.482Z,3.15
2022-09-14T17:58:42.564Z,4.32
2022-09-14T18:01:19.067Z,3.15
2022-09-14T18:03:52.060Z,3.58
2022-09-14T18:06:20.301Z,3.30
2022-09-14T18:08:48.948Z,3.83
2022-09-14T18:11:18.043Z,4.20
2022-09-14T18:13:47.350Z,4.05
2022-09-14T18:16:16.935Z,4.50
2022-09-14T18:18:44.554Z,4.20
2022-09-14T18:21:12.514Z,3.10
2022-09-14T18:23:40.143Z,4.10
2022-09-14T18:26:08.540Z,3.67
2022-09-14T18:28:37.120Z,3.63
2022-09-14T18:31:08.052Z,3.90
2022-09-14T18:33:36.926Z,3.80
2022-09-14T18:36:06.750Z,3.90
2022-09-14T18:38:34.570Z,3.35
2022-09-14T18:41:07.461Z,3.85
2022-09-14T18:43:35.727Z,3.83
2022-09-14T18:46:09.777Z,4.00
2022-09-14T18:48:39.397Z,3.80
2022-09-14T18:51:07.756Z,4.40
2022-09-14T18:53:35.536Z,4.53
2022-09-14T18:56:05.609Z,4.38
2022-09-14T18:58:35.480Z,4.25
2022-09-14T19:01:03.884Z,3.33
2022-09-14T19:03:35.364Z,3.78
2022-09-14T19:06:08.799Z,4.00
2022-09-14T19:08:37.369Z,3.30
2022-09-14T19:11:10.315Z,3.17
2022-09-14T19:13:38.650Z,3.45
2022-09-14T19:16:08.174Z,3.67
2022-09-14T19:18:36.409Z,4.65
2022-09-14T19:21:12.931Z,2.83
2022-09-14T19:23:41.735Z,3.33
2022-09-14T19:26:16.249Z,3.60
2022-09-14T19:28:44.910Z,3.90
2022-09-14T19:31:14.748Z,4.13
2022-09-14T19:33:45.548Z,3.85
2022-09-14T19:36:17.642Z,3.50
2022-09-14T19:38:45.810Z,3.25
2022-09-14T19:41:13.745Z,3.35
2022-09-14T19:43:41.763Z,4.00
2022-09-14T19:46:18.750Z,3.25
2022-09-14T19:48:47.650Z,3.55
2022-09-14T19:51:19.779Z,3.47
2022-09-14T19:53:49.733Z,3.83
2022-09-14T19:56:20.153Z,3.90
2022-09-14T19:58:50.613Z,3.95
2022-09-14T20:01:20.018Z,3.58
2022-09-14T20:03:49.185Z,3.90
2022-09-14T20:06:23.299Z,3.90
2022-09-14T20:08:55.115Z,3.67
2022-09-14T20:11:25.322Z,3.15
2022-09-14T20:13:57.841Z,3.58
2022-09-14T20:16:29.392Z,3.38
2022-09-14T20:18:59.800Z,3.80
2022-09-14T20:21:28.690Z,3.60
2022-09-14T20:24:15.566Z,3.22
2022-09-14T20:26:45.570Z,3.22
2022-09-14T20:29:13.043Z,2.85
2022-09-14T20:31:40.446Z,2.70
2022-09-14T20:34:08.369Z,3.08
2022-09-14T20:36:35.651Z,3.10
2022-09-14T20:39:04.010Z,2.90
2022-09-14T20:41:36.340Z,2.65
2022-09-14T20:46:37.615Z,2.45
2022-09-14T20:49:13.487Z,2.97
2022-09-14T20:51:42.008Z,2.50
2022-09-14T20:54:12.465Z,2.60
2022-09-14T20:56:40.404Z,2.42
2022-09-14T20:59:11.452Z,2.22
2022-09-14T21:01:41.427Z,2.50
2022-09-14T21:04:11.633Z,2.30
2022-09-14T21:06:42.225Z,2.35
2022-09-14T21:09:11.237Z,2.45
2022-09-14T21:11:38.662Z,2.60
2022-09-14T21:14:06.832Z,2.10
2022-09-14T21:16:38.078Z,2.13
2022-09-14T21:19:08.284Z,2.35
2022-09-14T21:21:35.915Z,2.72
2022-09-14T21:24:05.891Z,2.03
2022-09-14T21:26:39.419Z,2.17
2022-09-14T21:29:15.942Z,2.25
2022-09-14T21:31:44.189Z,2.72
2022-09-14T21:34:12.418Z,1.95
2022-09-14T21:36:45.871Z,1.63
2022-09-14T21:39:17.039Z,1.98
2022-09-14T21:41:45.659Z,1.90
2022-09-14T21:44:14.119Z,2.00
2022-09-14T21:46:42.579Z,1.95
2022-09-14T21:49:15.628Z,1.63
2022-09-14T21:51:43.524Z,1.75
2022-09-14T21:54:13.033Z,2.22
2022-09-14T21:56:42.963Z,2.20
2022-09-14T21:59:19.723Z,1.70
2022-09-14T22:01:48.218Z,1.80
2022-09-14T22:04:19.350Z,1.70
2022-09-14T22:06:47.227Z,1.48
2022-09-14T22:09:17.424Z,1.42
2022-09-14T22:11:45.886Z,1.45
2022-09-14T22:14:18.880Z,1.90
2022-09-14T22:16:47.392Z,1.40
2022-09-14T22:19:24.424Z,1.20
2022-09-14T22:21:52.468Z,1.70
2022-09-14T22:24:37.067Z,1.80
2022-09-14T22:27:07.772Z,1.83
2022-09-14T22:29:35.341Z,1.73
2022-09-14T22:32:05.859Z,2.05
2022-09-14T22:34:35.451Z,1.42
2022-09-14T22:37:03.095Z,1.90
2022-09-14T22:39:30.352Z,1.70
2022-09-14T22:41:57.603Z,1.70
2022-09-14T22:44:25.069Z,2.13
2022-09-14T22:46:52.437Z,1.67
2022-09-14T22:49:19.800Z,1.67
2022-09-14T22:51:47.806Z,1.88
2022-09-14T22:54:15.228Z,2.00
2022-09-14T22:56:42.522Z,1.58
2022-09-14T22:59:10.903Z,1.60
2022-09-14T23:01:41.817Z,1.50
2022-09-14T23:04:12.310Z,1.65
2022-09-14T23:06:42.897Z,1.70
2022-09-14T23:09:14.212Z,1.30
2022-09-14T23:11:42.572Z,1.70
2022-09-14T23:14:09.856Z,1.83
2022-09-14T23:16:37.825Z,1.75
2022-09-14T23:19:10.134Z,1.70
2022-09-14T23:24:07.533Z,1.60
2022-09-14T23:26:34.859Z,1.88
2022-09-14T23:29:07.007Z,1.80
2022-09-14T23:31:34.360Z,1.63
2022-09-14T23:34:02.936Z,2.13
2022-09-14T23:36:31.360Z,1.88
2022-09-14T23:38:58.926Z,1.70
2022-09-14T23:41:27.276Z,1.88
2022-09-14T23:43:55.085Z,1.73
2022-09-14T23:46:23.636Z,1.90
2022-09-14T23:48:51.787Z,1.90
2022-09-14T23:51:20.025Z,1.92
2022-09-14T23:53:47.896Z,2.05
2022-09-14T23:56:15.720Z,1.95
2022-09-14T23:58:43.769Z,2.63
